Terminal Aerodrome Forecast
Issued by NWS Upton, NY

Home | Current Version | Previous Version | Text Only | Print | Product List | Glossary On
Versions: 1 2 3 4 5 6 7 8 9 10 11 12 13 14 15 16 17 18 19 20 21 22 23 24 25 26 27
246
FTUS41 KOKX 251634 AAC
TAFBDR
TAF AMD
KBDR 251634Z 2517/2612 06016G24KT 2SM -RA BR SCT007 OVC012
     FM251800 06020G27KT 4SM -RA BR OVC007
     FM260200 06021G28KT 1SM RA BR OVC006
     FM260500 06016KT 1SM -RA BR OVC005
     FM261000 05011KT 1SM -RA BR OVC004=

USA.gov is the U.S. government's official web portal to all federal, state and local government web resources and services.